Terminal Aerodrome Forecast
Issued by NWS Newport/Morehead City, NC

Home | Current Version | Previous Version | Graphics & Text | Print | Product List | Glossary On
Versions: 1 2 3 4 5 6 7 8 9 10 11 12 13 14 15 16 17 18 19 20 21
000
FTUS42 KMHX 102100 AAA
TAFEWN
TAF AMD
KEWN 102149Z 1022/1118 19008KT P6SM VCTS SCT015 BKN040CB
      TEMPO 1022/1023 32015G25KT 3SM TSRA OVC010CB
     FM110500 20004KT 4SM BR VCSH BKN040 OVC200=

USA.gov is the U.S. government's official web portal to all federal, state and local government web resources and services.